sensor_id;sensor_type;location;lat;lon;timestamp;temperature;humidity
48208;DHT22;33997;53.278;9.708;2023-04-04T00:00:14;-3275.30;83.90
48208;DHT22;33997;53.278;9.708;2023-04-04T00:02:39;-3275.30;84.10
48208;DHT22;33997;53.278;9.708;2023-04-04T00:05:06;-3275.20;83.70
48208;DHT22;33997;53.278;9.708;2023-04-04T00:07:32;-3275.20;83.80
48208;DHT22;33997;53.278;9.708;2023-04-04T00:09:57;-3275.20;83.80
48208;DHT22;33997;53.278;9.708;2023-04-04T00:12:23;-3275.20;83.80
48208;DHT22;33997;53.278;9.708;2023-04-04T00:14:49;-3275.20;83.70
48208;DHT22;33997;53.278;9.708;2023-04-04T00:17:15;-3275.10;83.20
48208;DHT22;33997;53.278;9.708;2023-04-04T00:19:40;-3275.20;82.90
48208;DHT22;33997;53.278;9.708;2023-04-04T00:22:06;-3275.20;82.30
48208;DHT22;33997;53.278;9.708;2023-04-04T00:24:31;-3275.20;82.10
48208;DHT22;33997;53.278;9.708;2023-04-04T00:26:58;-3275.30;81.50
48208;DHT22;33997;53.278;9.708;2023-04-04T00:29:23;-3275.40;81.30
48208;DHT22;33997;53.278;9.708;2023-04-04T00:31:49;-3275.30;81.10
48208;DHT22;33997;53.278;9.708;2023-04-04T00:34:14;-3275.30;81.30
48208;DHT22;33997;53.278;9.708;2023-04-04T00:36:39;-3275.40;80.70
48208;DHT22;33997;53.278;9.708;2023-04-04T00:39:05;-3275.40;79.90
48208;DHT22;33997;53.278;9.708;2023-04-04T00:41:31;-3275.40;79.60
48208;DHT22;33997;53.278;9.708;2023-04-04T00:43:57;-3275.40;79.60
48208;DHT22;33997;53.278;9.708;2023-04-04T00:46:22;-3275.50;79.40
48208;DHT22;33997;53.278;9.708;2023-04-04T00:48:49;-3275.40;80.50
48208;DHT22;33997;53.278;9.708;2023-04-04T00:51:15;-3275.30;80.70
48208;DHT22;33997;53.278;9.708;2023-04-04T00:53:43;-3275.30;80.90
48208;DHT22;33997;53.278;9.708;2023-04-04T00:56:10;-3275.30;81.20
48208;DHT22;33997;53.278;9.708;2023-04-04T00:58:36;-3275.20;81.50
48208;DHT22;33997;53.278;9.708;2023-04-04T01:01:01;-3275.20;81.30
48208;DHT22;33997;53.278;9.708;2023-04-04T01:03:27;-3275.20;81.10
48208;DHT22;33997;53.278;9.708;2023-04-04T01:05:54;-3275.20;81.00
48208;DHT22;33997;53.278;9.708;2023-04-04T01:08:23;-3275.20;80.80
48208;DHT22;33997;53.278;9.708;2023-04-04T01:10:49;-3275.10;81.20
48208;DHT22;33997;53.278;9.708;2023-04-04T01:13:15;-3275.10;81.60
48208;DHT22;33997;53.278;9.708;2023-04-04T01:15:41;-3275.10;81.10
48208;DHT22;33997;53.278;9.708;2023-04-04T01:18:07;-3275.10;80.70
48208;DHT22;33997;53.278;9.708;2023-04-04T01:20:38;-3275.10;80.90
48208;DHT22;33997;53.278;9.708;2023-04-04T01:23:04;-3275.00;80.90
48208;DHT22;33997;53.278;9.708;2023-04-04T01:25:30;-3275.10;81.20
48208;DHT22;33997;53.278;9.708;2023-04-04T01:27:57;-3275.00;81.50
48208;DHT22;33997;53.278;9.708;2023-04-04T01:30:26;-3275.00;81.70
48208;DHT22;33997;53.278;9.708;2023-04-04T01:33:12;-3275.00;81.70
48208;DHT22;33997;53.278;9.708;2023-04-04T01:35:43;-3275.00;81.60
48208;DHT22;33997;53.278;9.708;2023-04-04T01:40:51;-3275.00;81.70
48208;DHT22;33997;53.278;9.708;2023-04-04T01:43:19;-3275.00;81.80
48208;DHT22;33997;53.278;9.708;2023-04-04T01:45:44;-3274.90;82.10
48208;DHT22;33997;53.278;9.708;2023-04-04T01:48:10;-3275.00;81.70
48208;DHT22;33997;53.278;9.708;2023-04-04T01:50:36;-3275.00;81.50
48208;DHT22;33997;53.278;9.708;2023-04-04T01:53:01;-3275.10;81.10
48208;DHT22;33997;53.278;9.708;2023-04-04T01:55:27;-3275.10;81.10
48208;DHT22;33997;53.278;9.708;2023-04-04T01:57:52;-3275.10;81.30
48208;DHT22;33997;53.278;9.708;2023-04-04T02:00:18;-3275.10;81.20
48208;DHT22;33997;53.278;9.708;2023-04-04T02:02:43;-3275.20;80.80
48208;DHT22;33997;53.278;9.708;2023-04-04T02:05:09;-3275.20;80.90
48208;DHT22;33997;53.278;9.708;2023-04-04T02:07:35;-3275.20;81.10
48208;DHT22;33997;53.278;9.708;2023-04-04T02:10:00;-3275.20;81.30
48208;DHT22;33997;53.278;9.708;2023-04-04T02:12:26;-3275.20;81.60
48208;DHT22;33997;53.278;9.708;2023-04-04T02:14:51;-3275.10;81.20
48208;DHT22;33997;53.278;9.708;2023-04-04T02:17:17;-3275.20;81.10
48208;DHT22;33997;53.278;9.708;2023-04-04T02:19:43;-3275.20;81.20
48208;DHT22;33997;53.278;9.708;2023-04-04T02:22:08;-3275.20;81.40
48208;DHT22;33997;53.278;9.708;2023-04-04T02:24:34;-3275.20;81.50
48208;DHT22;33997;53.278;9.708;2023-04-04T02:26:59;-3275.30;81.50
48208;DHT22;33997;53.278;9.708;2023-04-04T02:29:25;-3275.40;81.50
48208;DHT22;33997;53.278;9.708;2023-04-04T02:31:50;-3275.40;81.10
48208;DHT22;33997;53.278;9.708;2023-04-04T02:34:16;-3275.40;81.20
48208;DHT22;33997;53.278;9.708;2023-04-04T02:36:41;-3275.50;81.20
48208;DHT22;33997;53.278;9.708;2023-04-04T02:39:07;-3275.50;80.90
48208;DHT22;33997;53.278;9.708;2023-04-04T02:41:32;-3275.50;80.80
48208;DHT22;33997;53.278;9.708;2023-04-04T02:43:58;-3275.40;81.20
48208;DHT22;33997;53.278;9.708;2023-04-04T02:46:23;-3275.50;81.10
48208;DHT22;33997;53.278;9.708;2023-04-04T02:48:49;-3275.50;80.60
48208;DHT22;33997;53.278;9.708;2023-04-04T02:51:15;-3275.40;80.80
48208;DHT22;33997;53.278;9.708;2023-04-04T02:53:41;-3275.40;80.80
48208;DHT22;33997;53.278;9.708;2023-04-04T02:56:06;-3275.40;80.80
48208;DHT22;33997;53.278;9.708;2023-04-04T02:58:32;-3275.40;81.10
48208;DHT22;33997;53.278;9.708;2023-04-04T03:00:58;-3275.30;81.10
48208;DHT22;33997;53.278;9.708;2023-04-04T03:03:23;-3275.40;81.30
48208;DHT22;33997;53.278;9.708;2023-04-04T03:05:49;-3275.30;81.00
48208;DHT22;33997;53.278;9.708;2023-04-04T03:08:15;-3275.40;81.20
48208;DHT22;33997;53.278;9.708;2023-04-04T03:10:41;-3275.30;81.50
48208;DHT22;33997;53.278;9.708;2023-04-04T03:13:07;-3275.30;81.60
48208;DHT22;33997;53.278;9.708;2023-04-04T03:15:32;-3275.30;81.90
48208;DHT22;33997;53.278;9.708;2023-04-04T03:17:59;-3275.30;81.90
48208;DHT22;33997;53.278;9.708;2023-04-04T03:20:24;-3275.30;82.00
48208;DHT22;33997;53.278;9.708;2023-04-04T03:22:50;-3275.30;82.20
48208;DHT22;33997;53.278;9.708;2023-04-04T03:25:16;-3275.30;82.10
48208;DHT22;33997;53.278;9.708;2023-04-04T03:27:41;-3275.40;82.60
48208;DHT22;33997;53.278;9.708;2023-04-04T03:30:08;-3275.40;82.60
48208;DHT22;33997;53.278;9.708;2023-04-04T03:32:35;-3275.40;82.50
48208;DHT22;33997;53.278;9.708;2023-04-04T03:35:01;-3275.40;82.40
48208;DHT22;33997;53.278;9.708;2023-04-04T03:37:28;-3275.30;82.50
48208;DHT22;33997;53.278;9.708;2023-04-04T03:39:54;-3275.40;82.70
48208;DHT22;33997;53.278;9.708;2023-04-04T03:42:19;-3275.30;82.70
48208;DHT22;33997;53.278;9.708;2023-04-04T03:44:46;-3275.30;82.80
48208;DHT22;33997;53.278;9.708;2023-04-04T03:47:12;-3275.30;83.10
48208;DHT22;33997;53.278;9.708;2023-04-04T03:49:38;-3275.30;82.90
48208;DHT22;33997;53.278;9.708;2023-04-04T03:52:04;-3275.30;82.80
48208;DHT22;33997;53.278;9.708;2023-04-04T03:54:30;-3275.30;83.20
48208;DHT22;33997;53.278;9.708;2023-04-04T03:56:56;-3275.30;83.40
48208;DHT22;33997;53.278;9.708;2023-04-04T03:59:22;-3275.40;83.50
48208;DHT22;33997;53.278;9.708;2023-04-04T04:01:47;-3275.40;83.30
48208;DHT22;33997;53.278;9.708;2023-04-04T04:04:13;-3275.40;82.90
48208;DHT22;33997;53.278;9.708;2023-04-04T04:06:38;-3275.40;82.60
48208;DHT22;33997;53.278;9.708;2023-04-04T04:09:04;-3275.40;82.60
48208;DHT22;33997;53.278;9.708;2023-04-04T04:11:30;-3275.40;82.20
48208;DHT22;33997;53.278;9.708;2023-04-04T04:13:55;-3275.40;82.40
48208;DHT22;33997;53.278;9.708;2023-04-04T04:16:21;-3275.40;82.30
48208;DHT22;33997;53.278;9.708;2023-04-04T04:18:47;-3275.50;82.10
48208;DHT22;33997;53.278;9.708;2023-04-04T04:21:13;-3275.50;82.10
48208;DHT22;33997;53.278;9.708;2023-04-04T04:23:38;-3275.50;82.20
48208;DHT22;33997;53.278;9.708;2023-04-04T04:26:03;-3275.50;82.50
48208;DHT22;33997;53.278;9.708;2023-04-04T04:28:30;-3275.50;82.50
48208;DHT22;33997;53.278;9.708;2023-04-04T04:31:02;-3275.50;82.80
48208;DHT22;33997;53.278;9.708;2023-04-04T04:33:27;-3275.50;82.50
48208;DHT22;33997;53.278;9.708;2023-04-04T04:36:03;-3275.50;82.50
48208;DHT22;33997;53.278;9.708;2023-04-04T04:38:29;-3275.50;82.50
48208;DHT22;33997;53.278;9.708;2023-04-04T04:40:55;-3275.50;82.60
48208;DHT22;33997;53.278;9.708;2023-04-04T04:43:21;-3275.50;82.70
48208;DHT22;33997;53.278;9.708;2023-04-04T04:45:47;-3275.50;83.00
48208;DHT22;33997;53.278;9.708;2023-04-04T04:48:13;-3275.60;82.70
48208;DHT22;33997;53.278;9.708;2023-04-04T04:50:38;-3275.60;82.60
48208;DHT22;33997;53.278;9.708;2023-04-04T04:53:04;-3275.70;82.40
48208;DHT22;33997;53.278;9.708;2023-04-04T04:55:29;-3275.70;82.50
48208;DHT22;33997;53.278;9.708;2023-04-04T04:57:55;-3275.70;82.60
48208;DHT22;33997;53.278;9.708;2023-04-04T05:00:20;-3275.70;82.50
48208;DHT22;33997;53.278;9.708;2023-04-04T05:02:47;-3275.70;81.90
48208;DHT22;33997;53.278;9.708;2023-04-04T05:05:13;-3275.80;81.80
48208;DHT22;33997;53.278;9.708;2023-04-04T05:07:38;-3275.80;81.70
48208;DHT22;33997;53.278;9.708;2023-04-04T05:10:08;-3275.80;81.70
48208;DHT22;33997;53.278;9.708;2023-04-04T05:12:34;-3275.90;81.70
48208;DHT22;33997;53.278;9.708;2023-04-04T05:14:59;-3275.90;81.50
48208;DHT22;33997;53.278;9.708;2023-04-04T05:17:25;-3276.00;81.90
48208;DHT22;33997;53.278;9.708;2023-04-04T05:19:50;-3276.00;81.90
48208;DHT22;33997;53.278;9.708;2023-04-04T05:22:16;-3276.10;81.90
48208;DHT22;33997;53.278;9.708;2023-04-04T05:24:42;-3276.10;81.50
48208;DHT22;33997;53.278;9.708;2023-04-04T05:27:07;-3276.20;81.50
48208;DHT22;33997;53.278;9.708;2023-04-04T05:29:33;-3276.20;81.20
48208;DHT22;33997;53.278;9.708;2023-04-04T05:31:58;-3276.30;81.00
48208;DHT22;33997;53.278;9.708;2023-04-04T05:34:23;-3276.30;80.90
48208;DHT22;33997;53.278;9.708;2023-04-04T05:36:49;-3276.40;80.80
48208;DHT22;33997;53.278;9.708;2023-04-04T05:39:15;-3276.40;80.50
48208;DHT22;33997;53.278;9.708;2023-04-04T05:41:40;-3276.40;80.90
48208;DHT22;33997;53.278;9.708;2023-04-04T05:44:06;-3276.40;80.80
48208;DHT22;33997;53.278;9.708;2023-04-04T05:46:31;-3276.50;80.50
48208;DHT22;33997;53.278;9.708;2023-04-04T05:48:57;-3276.50;80.20
48208;DHT22;33997;53.278;9.708;2023-04-04T05:51:22;-3276.50;80.00
48208;DHT22;33997;53.278;9.708;2023-04-04T05:53:47;-3276.60;80.30
48208;DHT22;33997;53.278;9.708;2023-04-04T05:56:13;-3276.60;79.90
48208;DHT22;33997;53.278;9.708;2023-04-04T05:58:39;-3276.60;79.60
48208;DHT22;33997;53.278;9.708;2023-04-04T06:01:07;-3276.70;79.70
48208;DHT22;33997;53.278;9.708;2023-04-04T06:03:33;0.00;79.60
48208;DHT22;33997;53.278;9.708;2023-04-04T06:06:00;0.00;79.50
48208;DHT22;33997;53.278;9.708;2023-04-04T06:08:27;0.10;79.60
48208;DHT22;33997;53.278;9.708;2023-04-04T06:10:52;0.10;79.30
48208;DHT22;33997;53.278;9.708;2023-04-04T06:13:19;0.20;79.20
48208;DHT22;33997;53.278;9.708;2023-04-04T06:15:44;0.20;79.10
48208;DHT22;33997;53.278;9.708;2023-04-04T06:18:10;0.30;78.60
48208;DHT22;33997;53.278;9.708;2023-04-04T06:20:35;0.40;78.90
48208;DHT22;33997;53.278;9.708;2023-04-04T06:23:01;0.50;78.30
48208;DHT22;33997;53.278;9.708;2023-04-04T06:25:29;0.60;78.30
48208;DHT22;33997;53.278;9.708;2023-04-04T06:27:55;0.60;78.00
48208;DHT22;33997;53.278;9.708;2023-04-04T06:30:21;0.60;77.60
48208;DHT22;33997;53.278;9.708;2023-04-04T06:32:46;0.80;77.70
48208;DHT22;33997;53.278;9.708;2023-04-04T06:35:12;1.00;78.10
48208;DHT22;33997;53.278;9.708;2023-04-04T06:37:38;1.00;76.30
48208;DHT22;33997;53.278;9.708;2023-04-04T06:40:04;1.10;76.10
48208;DHT22;33997;53.278;9.708;2023-04-04T06:42:29;1.30;76.60
48208;DHT22;33997;53.278;9.708;2023-04-04T06:44:55;1.40;75.10
48208;DHT22;33997;53.278;9.708;2023-04-04T06:47:20;1.40;75.30
48208;DHT22;33997;53.278;9.708;2023-04-04T06:49:46;1.50;74.10
48208;DHT22;33997;53.278;9.708;2023-04-04T06:52:12;1.80;74.40
48208;DHT22;33997;53.278;9.708;2023-04-04T06:54:38;1.90;74.30
48208;DHT22;33997;53.278;9.708;2023-04-04T06:57:03;2.00;75.30
48208;DHT22;33997;53.278;9.708;2023-04-04T06:59:29;2.20;72.90
48208;DHT22;33997;53.278;9.708;2023-04-04T07:01:56;2.10;71.50
48208;DHT22;33997;53.278;9.708;2023-04-04T07:04:21;2.00;71.20
48208;DHT22;33997;53.278;9.708;2023-04-04T07:06:47;2.20;72.60
48208;DHT22;33997;53.278;9.708;2023-04-04T07:09:12;2.20;70.70
48208;DHT22;33997;53.278;9.708;2023-04-04T07:11:37;2.10;69.30
48208;DHT22;33997;53.278;9.708;2023-04-04T07:14:03;2.60;71.90
48208;DHT22;33997;53.278;9.708;2023-04-04T07:16:28;2.60;69.80
48208;DHT22;33997;53.278;9.708;2023-04-04T07:18:55;2.50;69.10
48208;DHT22;33997;53.278;9.708;2023-04-04T07:21:21;2.60;69.10
48208;DHT22;33997;53.278;9.708;2023-04-04T07:23:47;2.70;68.50
48208;DHT22;33997;53.278;9.708;2023-04-04T07:26:12;3.00;68.60
48208;DHT22;33997;53.278;9.708;2023-04-04T07:28:38;2.80;68.80
48208;DHT22;33997;53.278;9.708;2023-04-04T07:31:03;3.20;68.50
48208;DHT22;33997;53.278;9.708;2023-04-04T07:33:29;3.20;67.30
48208;DHT22;33997;53.278;9.708;2023-04-04T07:35:54;3.30;65.90
48208;DHT22;33997;53.278;9.708;2023-04-04T07:38:20;3.40;66.70
48208;DHT22;33997;53.278;9.708;2023-04-04T07:40:48;3.30;66.20
48208;DHT22;33997;53.278;9.708;2023-04-04T07:43:13;3.50;65.20
48208;DHT22;33997;53.278;9.708;2023-04-04T07:45:39;3.50;65.70
48208;DHT22;33997;53.278;9.708;2023-04-04T07:48:04;3.40;65.40
48208;DHT22;33997;53.278;9.708;2023-04-04T07:50:30;3.60;65.80
48208;DHT22;33997;53.278;9.708;2023-04-04T07:52:55;3.80;64.90
48208;DHT22;33997;53.278;9.708;2023-04-04T07:55:23;4.10;65.30
48208;DHT22;33997;53.278;9.708;2023-04-04T07:57:50;4.10;63.80
48208;DHT22;33997;53.278;9.708;2023-04-04T08:00:16;3.80;63.10
48208;DHT22;33997;53.278;9.708;2023-04-04T08:02:52;4.20;63.60
48208;DHT22;33997;53.278;9.708;2023-04-04T08:05:17;4.40;64.40
48208;DHT22;33997;53.278;9.708;2023-04-04T08:07:43;4.50;62.10
48208;DHT22;33997;53.278;9.708;2023-04-04T08:10:09;4.80;63.50
48208;DHT22;33997;53.278;9.708;2023-04-04T08:12:34;5.10;62.10
48208;DHT22;33997;53.278;9.708;2023-04-04T08:15:00;4.90;59.80
48208;DHT22;33997;53.278;9.708;2023-04-04T08:17:26;4.80;59.20
48208;DHT22;33997;53.278;9.708;2023-04-04T08:19:52;4.90;60.00
48208;DHT22;33997;53.278;9.708;2023-04-04T08:22:18;5.10;59.20
48208;DHT22;33997;53.278;9.708;2023-04-04T08:24:43;5.40;60.40
48208;DHT22;33997;53.278;9.708;2023-04-04T08:27:09;5.60;58.70
48208;DHT22;33997;53.278;9.708;2023-04-04T08:29:35;6.00;59.20
48208;DHT22;33997;53.278;9.708;2023-04-04T08:32:00;6.60;56.30
48208;DHT22;33997;53.278;9.708;2023-04-04T08:34:26;6.00;55.50
48208;DHT22;33997;53.278;9.708;2023-04-04T08:36:52;6.20;55.10
48208;DHT22;33997;53.278;9.708;2023-04-04T08:39:18;6.10;54.10
48208;DHT22;33997;53.278;9.708;2023-04-04T08:41:45;6.70;57.30
48208;DHT22;33997;53.278;9.708;2023-04-04T08:44:16;6.70;54.30
48208;DHT22;33997;53.278;9.708;2023-04-04T08:46:46;6.80;55.10
48208;DHT22;33997;53.278;9.708;2023-04-04T08:49:15;6.70;52.80
48208;DHT22;33997;53.278;9.708;2023-04-04T08:51:42;7.10;53.30
48208;DHT22;33997;53.278;9.708;2023-04-04T08:54:09;7.30;53.60
48208;DHT22;33997;53.278;9.708;2023-04-04T08:56:34;6.60;53.30
48208;DHT22;33997;53.278;9.708;2023-04-04T08:59:00;6.80;53.20
48208;DHT22;33997;53.278;9.708;2023-04-04T09:01:27;6.70;52.20
48208;DHT22;33997;53.278;9.708;2023-04-04T09:03:55;6.70;52.60
48208;DHT22;33997;53.278;9.708;2023-04-04T09:06:22;7.10;51.80
48208;DHT22;33997;53.278;9.708;2023-04-04T09:08:48;7.00;53.40
48208;DHT22;33997;53.278;9.708;2023-04-04T09:11:16;7.50;50.70
48208;DHT22;33997;53.278;9.708;2023-04-04T09:13:43;6.80;51.90
48208;DHT22;33997;53.278;9.708;2023-04-04T09:16:09;7.20;51.80
48208;DHT22;33997;53.278;9.708;2023-04-04T09:18:35;7.00;51.20
48208;DHT22;33997;53.278;9.708;2023-04-04T09:21:10;7.10;50.30
48208;DHT22;33997;53.278;9.708;2023-04-04T09:23:36;6.80;50.30
48208;DHT22;33997;53.278;9.708;2023-04-04T09:26:02;7.10;50.80
48208;DHT22;33997;53.278;9.708;2023-04-04T09:28:28;7.20;50.60
48208;DHT22;33997;53.278;9.708;2023-04-04T09:30:54;7.60;49.90
48208;DHT22;33997;53.278;9.708;2023-04-04T09:33:20;7.10;50.00
48208;DHT22;33997;53.278;9.708;2023-04-04T09:35:50;7.40;50.70
48208;DHT22;33997;53.278;9.708;2023-04-04T09:38:22;7.10;48.80
48208;DHT22;33997;53.278;9.708;2023-04-04T09:40:48;7.40;51.10
48208;DHT22;33997;53.278;9.708;2023-04-04T09:43:14;7.30;49.70
48208;DHT22;33997;53.278;9.708;2023-04-04T09:45:43;8.00;49.30
48208;DHT22;33997;53.278;9.708;2023-04-04T09:48:09;8.00;45.10
48208;DHT22;33997;53.278;9.708;2023-04-04T09:50:36;8.10;46.40
48208;DHT22;33997;53.278;9.708;2023-04-04T09:53:01;8.10;47.30
48208;DHT22;33997;53.278;9.708;2023-04-04T09:55:36;8.80;48.30
48208;DHT22;33997;53.278;9.708;2023-04-04T09:58:13;9.00;46.90
48208;DHT22;33997;53.278;9.708;2023-04-04T10:00:40;9.40;47.40
48208;DHT22;33997;53.278;9.708;2023-04-04T10:03:07;8.80;44.20
48208;DHT22;33997;53.278;9.708;2023-04-04T10:05:33;9.20;43.90
48208;DHT22;33997;53.278;9.708;2023-04-04T10:07:59;8.90;42.30
48208;DHT22;33997;53.278;9.708;2023-04-04T10:10:26;8.70;45.60
48208;DHT22;33997;53.278;9.708;2023-04-04T10:12:56;9.70;44.00
48208;DHT22;33997;53.278;9.708;2023-04-04T10:15:21;9.30;43.80
48208;DHT22;33997;53.278;9.708;2023-04-04T10:17:49;9.10;44.50
48208;DHT22;33997;53.278;9.708;2023-04-04T10:20:17;9.00;43.80
48208;DHT22;33997;53.278;9.708;2023-04-04T10:22:44;9.30;43.90
48208;DHT22;33997;53.278;9.708;2023-04-04T10:25:10;8.90;45.80
48208;DHT22;33997;53.278;9.708;2023-04-04T10:27:36;9.40;45.50
48208;DHT22;33997;53.278;9.708;2023-04-04T10:30:03;9.40;43.10
48208;DHT22;33997;53.278;9.708;2023-04-04T10:32:48;9.60;42.40
48208;DHT22;33997;53.278;9.708;2023-04-04T10:35:16;9.20;43.20
48208;DHT22;33997;53.278;9.708;2023-04-04T10:37:50;9.50;42.30
48208;DHT22;33997;53.278;9.708;2023-04-04T10:40:18;9.50;42.70
48208;DHT22;33997;53.278;9.708;2023-04-04T10:42:46;9.60;42.10
48208;DHT22;33997;53.278;9.708;2023-04-04T10:45:15;9.30;43.20
48208;DHT22;33997;53.278;9.708;2023-04-04T10:47:41;8.90;43.90
48208;DHT22;33997;53.278;9.708;2023-04-04T10:50:08;8.70;43.30
48208;DHT22;33997;53.278;9.708;2023-04-04T10:52:40;8.80;44.40
48208;DHT22;33997;53.278;9.708;2023-04-04T10:55:09;8.70;41.50
48208;DHT22;33997;53.278;9.708;2023-04-04T10:57:37;9.30;43.80
48208;DHT22;33997;53.278;9.708;2023-04-04T11:00:09;9.40;41.60
48208;DHT22;33997;53.278;9.708;2023-04-04T11:10:28;9.80;40.90
48208;DHT22;33997;53.278;9.708;2023-04-04T11:12:55;9.10;42.30
48208;DHT22;33997;53.278;9.708;2023-04-04T11:15:24;9.30;43.00
48208;DHT22;33997;53.278;9.708;2023-04-04T11:17:57;10.40;42.70
48208;DHT22;33997;53.278;9.708;2023-04-04T11:20:28;10.60;38.60
48208;DHT22;33997;53.278;9.708;2023-04-04T11:23:07;10.80;37.70
48208;DHT22;33997;53.278;9.708;2023-04-04T11:25:35;11.10;38.90
48208;DHT22;33997;53.278;9.708;2023-04-04T11:28:06;11.00;38.20
48208;DHT22;33997;53.278;9.708;2023-04-04T11:30:36;10.50;39.40
48208;DHT22;33997;53.278;9.708;2023-04-04T11:33:02;9.90;37.80
48208;DHT22;33997;53.278;9.708;2023-04-04T11:35:29;9.60;37.60
48208;DHT22;33997;53.278;9.708;2023-04-04T11:40:20;9.40;39.40
48208;DHT22;33997;53.278;9.708;2023-04-04T11:42:57;10.10;38.70
48208;DHT22;33997;53.278;9.708;2023-04-04T11:45:29;11.10;38.00
48208;DHT22;33997;53.278;9.708;2023-04-04T11:47:56;11.60;38.90
48208;DHT22;33997;53.278;9.708;2023-04-04T11:50:22;11.80;37.20
48208;DHT22;33997;53.278;9.708;2023-04-04T11:52:49;12.10;37.10
48208;DHT22;33997;53.278;9.708;2023-04-04T11:55:16;10.70;38.70
48208;DHT22;33997;53.278;9.708;2023-04-04T11:57:42;11.10;37.30
48208;DHT22;33997;53.278;9.708;2023-04-04T12:00:08;11.10;36.60
48208;DHT22;33997;53.278;9.708;2023-04-04T12:02:37;10.60;36.60
48208;DHT22;33997;53.278;9.708;2023-04-04T12:05:03;10.50;38.10
48208;DHT22;33997;53.278;9.708;2023-04-04T12:07:32;10.10;38.50
48208;DHT22;33997;53.278;9.708;2023-04-04T12:10:01;10.90;38.20
48208;DHT22;33997;53.278;9.708;2023-04-04T12:12:27;11.80;36.80
48208;DHT22;33997;53.278;9.708;2023-04-04T12:14:53;12.30;37.40
48208;DHT22;33997;53.278;9.708;2023-04-04T12:17:18;11.30;37.40
48208;DHT22;33997;53.278;9.708;2023-04-04T12:19:44;11.50;36.00
48208;DHT22;33997;53.278;9.708;2023-04-04T12:22:09;11.30;36.50
48208;DHT22;33997;53.278;9.708;2023-04-04T12:24:36;11.10;37.10
48208;DHT22;33997;53.278;9.708;2023-04-04T12:27:01;11.20;36.90
48208;DHT22;33997;53.278;9.708;2023-04-04T12:29:28;10.50;37.40
48208;DHT22;33997;53.278;9.708;2023-04-04T12:32:01;10.90;38.40
48208;DHT22;33997;53.278;9.708;2023-04-04T12:34:30;11.00;37.00
48208;DHT22;33997;53.278;9.708;2023-04-04T12:36:56;10.30;38.80
48208;DHT22;33997;53.278;9.708;2023-04-04T12:39:25;10.70;36.30
48208;DHT22;33997;53.278;9.708;2023-04-04T12:41:56;10.90;37.20
48208;DHT22;33997;53.278;9.708;2023-04-04T12:44:38;11.30;37.20
48208;DHT22;33997;53.278;9.708;2023-04-04T12:47:06;11.30;35.30
48208;DHT22;33997;53.278;9.708;2023-04-04T12:49:38;11.50;35.80
48208;DHT22;33997;53.278;9.708;2023-04-04T12:52:04;11.20;36.50
48208;DHT22;33997;53.278;9.708;2023-04-04T12:54:34;10.30;35.00
48208;DHT22;33997;53.278;9.708;2023-04-04T12:57:02;10.60;36.20
48208;DHT22;33997;53.278;9.708;2023-04-04T12:59:30;10.70;37.70
48208;DHT22;33997;53.278;9.708;2023-04-04T13:01:56;9.70;35.80
48208;DHT22;33997;53.278;9.708;2023-04-04T13:04:22;9.50;36.40
48208;DHT22;33997;53.278;9.708;2023-04-04T13:06:48;9.40;36.00
48208;DHT22;33997;53.278;9.708;2023-04-04T13:09:18;9.80;35.30
48208;DHT22;33997;53.278;9.708;2023-04-04T13:12:04;10.60;35.40
48208;DHT22;33997;53.278;9.708;2023-04-04T13:17:20;12.80;32.30
48208;DHT22;33997;53.278;9.708;2023-04-04T13:19:46;12.90;32.30
48208;DHT22;33997;53.278;9.708;2023-04-04T13:22:12;11.90;32.50
48208;DHT22;33997;53.278;9.708;2023-04-04T13:24:37;12.30;32.70
48208;DHT22;33997;53.278;9.708;2023-04-04T13:27:03;11.50;31.50
48208;DHT22;33997;53.278;9.708;2023-04-04T13:29:28;12.10;32.80
48208;DHT22;33997;53.278;9.708;2023-04-04T13:31:53;12.20;31.90
48208;DHT22;33997;53.278;9.708;2023-04-04T13:34:21;12.10;32.50
48208;DHT22;33997;53.278;9.708;2023-04-04T13:36:47;11.90;33.50
48208;DHT22;33997;53.278;9.708;2023-04-04T13:39:12;11.50;34.80
48208;DHT22;33997;53.278;9.708;2023-04-04T13:41:38;12.00;34.40
48208;DHT22;33997;53.278;9.708;2023-04-04T13:44:03;11.70;31.60
48208;DHT22;33997;53.278;9.708;2023-04-04T13:46:29;11.00;32.30
48208;DHT22;33997;53.278;9.708;2023-04-04T13:48:54;11.40;34.80
48208;DHT22;33997;53.278;9.708;2023-04-04T13:51:20;11.40;33.00
48208;DHT22;33997;53.278;9.708;2023-04-04T13:53:45;11.00;32.80
48208;DHT22;33997;53.278;9.708;2023-04-04T13:56:11;10.50;33.60
48208;DHT22;33997;53.278;9.708;2023-04-04T13:58:36;10.80;34.00
48208;DHT22;33997;53.278;9.708;2023-04-04T14:01:02;10.80;34.90
48208;DHT22;33997;53.278;9.708;2023-04-04T14:03:29;10.30;34.30
48208;DHT22;33997;53.278;9.708;2023-04-04T14:05:54;10.20;35.40
48208;DHT22;33997;53.278;9.708;2023-04-04T14:08:20;10.30;34.50
48208;DHT22;33997;53.278;9.708;2023-04-04T14:10:45;10.10;33.70
48208;DHT22;33997;53.278;9.708;2023-04-04T14:13:11;10.80;36.10
48208;DHT22;33997;53.278;9.708;2023-04-04T14:15:36;12.10;33.00
48208;DHT22;33997;53.278;9.708;2023-04-04T14:18:03;12.20;34.50
48208;DHT22;33997;53.278;9.708;2023-04-04T14:20:29;14.10;33.00
48208;DHT22;33997;53.278;9.708;2023-04-04T14:22:54;13.50;30.70
48208;DHT22;33997;53.278;9.708;2023-04-04T14:25:20;14.00;29.00
48208;DHT22;33997;53.278;9.708;2023-04-04T14:27:45;14.30;29.60
48208;DHT22;33997;53.278;9.708;2023-04-04T14:30:11;14.20;30.00
48208;DHT22;33997;53.278;9.708;2023-04-04T14:32:37;14.80;28.90
48208;DHT22;33997;53.278;9.708;2023-04-04T14:35:02;15.00;30.50
48208;DHT22;33997;53.278;9.708;2023-04-04T14:37:28;15.00;29.70
48208;DHT22;33997;53.278;9.708;2023-04-04T14:39:53;14.40;28.00
48208;DHT22;33997;53.278;9.708;2023-04-04T14:42:19;14.00;28.10
48208;DHT22;33997;53.278;9.708;2023-04-04T14:44:44;13.30;29.60
48208;DHT22;33997;53.278;9.708;2023-04-04T14:47:10;14.20;30.50
48208;DHT22;33997;53.278;9.708;2023-04-04T14:49:35;14.30;28.20
48208;DHT22;33997;53.278;9.708;2023-04-04T14:52:01;15.30;27.70
48208;DHT22;33997;53.278;9.708;2023-04-04T14:54:27;15.90;29.00
48208;DHT22;33997;53.278;9.708;2023-04-04T14:56:52;16.00;27.60
48208;DHT22;33997;53.278;9.708;2023-04-04T14:59:17;16.00;27.30
48208;DHT22;33997;53.278;9.708;2023-04-04T15:01:43;15.00;28.00
48208;DHT22;33997;53.278;9.708;2023-04-04T15:04:09;14.70;28.90
48208;DHT22;33997;53.278;9.708;2023-04-04T15:06:35;14.00;28.40
48208;DHT22;33997;53.278;9.708;2023-04-04T15:09:02;14.40;28.50
48208;DHT22;33997;53.278;9.708;2023-04-04T15:11:29;14.00;28.40
48208;DHT22;33997;53.278;9.708;2023-04-04T15:13:55;13.80;31.30
48208;DHT22;33997;53.278;9.708;2023-04-04T15:16:21;13.70;30.40
48208;DHT22;33997;53.278;9.708;2023-04-04T15:18:46;14.00;29.60
48208;DHT22;33997;53.278;9.708;2023-04-04T15:21:12;13.70;30.50
48208;DHT22;33997;53.278;9.708;2023-04-04T15:23:37;13.50;30.90
48208;DHT22;33997;53.278;9.708;2023-04-04T15:26:04;13.10;30.30
48208;DHT22;33997;53.278;9.708;2023-04-04T15:28:30;12.80;31.00